Time;durP1;ratioP1;P1;durP2;ratioP2;P2;SDS_P1;SDS_P2;PMS_P1;PMS_P2;Temp;Humidity;BMP_temperature;BMP_pressure;BME280_temperature;BME280_humidity;BME280_pressure;Samples;Min_cycle;Max_cycle;Signal;HPM_P1;HPM_P2
2023/04/13 00:00:43;;;;;;;0.40;0.40;;;6.40;99.90;;;;;;5054616;28;20188;-49
2023/04/13 00:03:11;;;;;;;0.80;0.40;;;6.50;99.90;;;;;;5054244;28;20203;-50
2023/04/13 00:05:38;;;;;;;1.47;0.70;;;6.50;99.90;;;;;;5054234;28;20191;-49
2023/04/13 00:08:04;;;;;;;0.57;0.30;;;6.50;99.90;;;;;;5054486;28;20195;-49
2023/04/13 00:10:35;;;;;;;4.03;0.50;;;6.50;99.90;;;;;;5054404;28;20192;-49
2023/04/13 00:13:01;;;;;;;1.27;0.43;;;6.50;99.90;;;;;;5054032;28;20203;-50
2023/04/13 00:15:27;;;;;;;2.10;0.30;;;6.50;99.90;;;;;;5054079;28;20630;-49
2023/04/13 00:17:53;;;;;;;2.30;1.30;;;6.50;99.90;;;;;;5054252;28;20210;-50
2023/04/13 00:20:18;;;;;;;3.40;0.53;;;6.60;99.90;;;;;;5053840;28;20256;-49
2023/04/13 00:22:45;;;;;;;0.30;0.30;;;6.60;99.90;;;;;;5055024;28;20206;-51
2023/04/13 00:25:13;;;;;;;1.50;0.50;;;6.60;99.90;;;;;;5054188;28;20521;-50
2023/04/13 00:27:39;;;;;;;0.83;0.60;;;6.60;99.90;;;;;;5053976;28;20178;-50
2023/04/13 00:30:15;;;;;;;0.93;0.40;;;6.70;99.90;;;;;;5054080;28;20186;-52
2023/04/13 00:32:42;;;;;;;2.27;0.50;;;6.70;99.90;;;;;;5053726;28;20196;-51
2023/04/13 00:35:09;;;;;;;0.30;0.30;;;6.70;99.90;;;;;;5053989;28;20544;-50
2023/04/13 00:37:36;;;;;;;3.30;0.53;;;6.70;99.90;;;;;;5053829;28;20219;-51
2023/04/13 00:40:04;;;;;;;0.93;0.30;;;6.80;99.90;;;;;;5053717;28;20171;-49
2023/04/13 00:42:30;;;;;;;0.60;0.30;;;6.70;99.90;;;;;;5053559;28;20738;-49
2023/04/13 00:44:55;;;;;;;0.30;0.30;;;6.70;99.90;;;;;;5053625;28;20179;-53
2023/04/13 00:47:27;;;;;;;3.13;0.60;;;6.70;99.90;;;;;;5053842;28;20701;-50
2023/04/13 00:49:57;;;;;;;4.10;0.97;;;6.70;99.90;;;;;;5053812;28;20176;-51
2023/04/13 00:52:23;;;;;;;1.90;0.50;;;6.70;99.90;;;;;;5053665;28;20198;-50
2023/04/13 00:54:55;;;;;;;2.63;0.57;;;6.70;99.90;;;;;;5053701;28;20176;-49
2023/04/13 00:57:21;;;;;;;0.90;0.40;;;6.70;99.90;;;;;;5053711;28;20214;-49
2023/04/13 00:59:48;;;;;;;1.20;0.47;;;6.70;99.90;;;;;;5053333;28;20250;-49
2023/04/13 01:02:15;;;;;;;1.53;0.60;;;6.80;99.90;;;;;;5053554;28;20324;-49
2023/04/13 01:04:41;;;;;;;1.33;0.53;;;6.80;99.90;;;;;;5053585;28;20175;-50
2023/04/13 01:07:15;;;;;;;0.73;0.50;;;6.80;99.90;;;;;;5053475;28;20639;-51
2023/04/13 01:09:51;;;;;;;5.10;1.57;;;6.80;99.90;;;;;;5053643;28;20179;-50
2023/04/13 01:12:24;;;;;;;0.30;0.30;;;6.80;99.90;;;;;;5053461;28;20603;-49
2023/04/13 01:15:07;;;;;;;3.00;0.50;;;6.80;99.90;;;;;;5053582;28;20178;-49
2023/04/13 01:17:36;;;;;;;2.67;0.50;;;6.80;99.90;;;;;;5054239;28;20160;-50
2023/04/13 01:20:11;;;;;;;1.40;0.50;;;6.70;99.90;;;;;;5057343;28;20281;-49
2023/04/13 01:22:44;;;;;;;2.90;0.60;;;6.80;99.90;;;;;;5058393;28;20651;-49
2023/04/13 01:25:29;;;;;;;2.20;0.57;;;6.80;99.90;;;;;;5058146;28;20180;-50
2023/04/13 01:27:59;;;;;;;0.20;0.20;;;6.80;99.90;;;;;;5057541;28;20200;-50
2023/04/13 01:30:27;;;;;;;1.43;0.60;;;6.80;99.90;;;;;;5057464;28;20287;-49
2023/04/13 01:32:54;;;;;;;1.20;0.60;;;6.80;99.90;;;;;;5057362;28;20210;-50
2023/04/13 01:35:21;;;;;;;0.30;0.23;;;6.80;99.90;;;;;;5057385;28;20180;-47
2023/04/13 01:37:49;;;;;;;0.30;0.30;;;6.80;99.90;;;;;;5057250;28;20208;-51
2023/04/13 01:40:14;;;;;;;0.97;0.63;;;6.80;99.90;;;;;;5057001;28;20273;-51
2023/04/13 01:42:42;;;;;;;2.90;0.83;;;6.90;99.90;;;;;;5057876;28;20223;-51
2023/04/13 01:45:28;;;;;;;0.93;0.40;;;6.90;99.90;;;;;;5057203;28;20176;-51
2023/04/13 01:48:14;;;;;;;1.33;0.40;;;6.90;99.90;;;;;;5046922;28;20195;-43
2023/04/13 01:50:43;;;;;;;7.00;0.60;;;6.90;99.90;;;;;;5057381;28;20551;-43
2023/04/13 01:53:15;;;;;;;1.80;0.47;;;6.90;99.90;;;;;;5056792;28;20248;-42
2023/04/13 01:55:42;;;;;;;2.27;1.13;;;6.90;99.90;;;;;;5056864;28;20239;-46
2023/04/13 01:58:11;;;;;;;0.80;0.50;;;7.00;99.90;;;;;;5056627;28;20200;-46
2023/04/13 02:00:38;;;;;;;2.37;0.50;;;7.00;99.90;;;;;;5056572;28;20214;-42
2023/04/13 02:03:08;;;;;;;1.17;0.40;;;7.00;99.90;;;;;;5056523;28;20655;-45
2023/04/13 02:05:35;;;;;;;1.60;0.60;;;7.00;99.90;;;;;;5056835;28;20202;-43
2023/04/13 02:08:04;;;;;;;1.03;0.47;;;7.10;99.90;;;;;;5056456;28;20651;-45
2023/04/13 02:10:33;;;;;;;1.30;0.70;;;7.10;99.90;;;;;;5056437;28;20206;-46
2023/04/13 02:12:59;;;;;;;1.00;0.50;;;7.10;99.90;;;;;;5056289;28;20209;-45
2023/04/13 02:15:25;;;;;;;5.67;1.10;;;7.10;99.90;;;;;;5056587;28;20649;-44
2023/04/13 02:17:51;;;;;;;2.17;0.50;;;7.10;99.90;;;;;;5056171;28;20204;-46
2023/04/13 02:20:17;;;;;;;4.17;0.83;;;7.10;99.90;;;;;;5056163;28;20197;-44
2023/04/13 02:22:44;;;;;;;2.03;0.60;;;7.10;99.90;;;;;;5058039;28;20203;-46
2023/04/13 02:25:11;;;;;;;3.07;0.50;;;7.10;99.90;;;;;;5056528;28;20183;-46
2023/04/13 02:27:38;;;;;;;6.87;0.83;;;7.00;99.90;;;;;;5056391;28;20174;-46
2023/04/13 02:30:05;;;;;;;0.77;0.50;;;7.00;99.90;;;;;;5056160;28;20177;-46
2023/04/13 02:32:32;;;;;;;1.00;0.50;;;7.00;99.90;;;;;;5056163;28;20204;-46
2023/04/13 02:35:00;;;;;;;1.07;0.80;;;7.10;99.90;;;;;;5056117;28;20187;-46
2023/04/13 02:37:30;;;;;;;1.43;0.50;;;7.10;99.90;;;;;;5056041;28;20265;-45
2023/04/13 02:39:55;;;;;;;4.80;0.33;;;7.10;99.90;;;;;;5056199;28;20196;-46
2023/04/13 02:42:21;;;;;;;0.33;0.33;;;7.10;99.90;;;;;;5056121;28;20717;-48
2023/04/13 02:44:48;;;;;;;2.13;0.47;;;7.20;99.90;;;;;;5056119;28;20176;-47
2023/04/13 02:47:14;;;;;;;6.73;0.63;;;7.20;99.90;;;;;;5056030;28;20191;-47
2023/04/13 02:49:41;;;;;;;0.50;0.40;;;7.10;99.90;;;;;;5056068;28;20237;-46
2023/04/13 02:52:07;;;;;;;2.77;0.60;;;7.20;99.90;;;;;;5055996;28;20208;-46
2023/04/13 02:54:33;;;;;;;0.73;0.33;;;7.20;99.90;;;;;;5055983;28;20181;-47
2023/04/13 02:57:00;;;;;;;1.77;0.53;;;7.10;99.90;;;;;;5055625;28;20184;-47
2023/04/13 02:59:27;;;;;;;2.77;0.50;;;7.10;99.90;;;;;;5056046;28;20212;-47
2023/04/13 03:01:57;;;;;;;3.03;0.50;;;7.10;99.90;;;;;;5055728;28;20211;-47
2023/04/13 03:04:27;;;;;;;0.47;0.30;;;7.10;99.90;;;;;;5056465;28;20239;-45
2023/04/13 03:06:53;;;;;;;2.53;0.60;;;7.10;99.90;;;;;;5055672;28;20639;-47
2023/04/13 03:09:20;;;;;;;1.13;0.53;;;7.10;99.90;;;;;;5055799;28;20188;-46
2023/04/13 03:11:45;;;;;;;0.60;0.50;;;7.10;99.90;;;;;;5055309;28;20203;-45
2023/04/13 03:14:19;;;;;;;1.10;0.50;;;7.10;99.90;;;;;;5055331;28;20184;-44
2023/04/13 03:16:45;;;;;;;3.20;0.70;;;7.10;99.90;;;;;;5055325;28;20688;-47
2023/04/13 03:19:11;;;;;;;1.93;0.40;;;7.00;99.90;;;;;;5057826;28;20220;-47
2023/04/13 03:21:36;;;;;;;1.80;0.43;;;7.10;99.90;;;;;;5056093;28;20686;-45
2023/04/13 03:24:02;;;;;;;2.80;0.70;;;7.10;99.90;;;;;;5055500;28;20186;-45
2023/04/13 03:26:28;;;;;;;2.60;0.60;;;7.10;99.90;;;;;;5055070;28;20186;-46
2023/04/13 03:28:53;;;;;;;1.50;0.40;;;7.00;99.90;;;;;;5055067;28;20187;-44
2023/04/13 03:31:21;;;;;;;4.70;0.60;;;7.10;99.90;;;;;;5054904;28;20208;-45
2023/04/13 03:33:46;;;;;;;1.07;0.50;;;7.10;99.90;;;;;;5055407;28;20240;-46
2023/04/13 03:36:13;;;;;;;2.97;0.80;;;7.10;99.90;;;;;;5055140;28;20531;-47
2023/04/13 03:38:38;;;;;;;0.77;0.40;;;7.00;99.90;;;;;;5055277;28;20208;-46
2023/04/13 03:41:04;;;;;;;1.13;0.60;;;7.00;99.90;;;;;;5054447;28;20310;-45
2023/04/13 03:43:30;;;;;;;0.93;0.40;;;7.00;99.90;;;;;;5055428;28;20206;-44
2023/04/13 03:45:55;;;;;;;1.37;0.73;;;7.00;99.90;;;;;;5054892;28;20180;-47
2023/04/13 03:48:21;;;;;;;0.57;0.40;;;6.90;99.90;;;;;;5054905;28;20184;-45
2023/04/13 03:50:47;;;;;;;1.60;0.53;;;7.00;99.90;;;;;;5055732;28;20272;-47
2023/04/13 03:53:12;;;;;;;0.67;0.40;;;6.90;99.90;;;;;;5054587;28;20231;-45
2023/04/13 03:55:38;;;;;;;0.80;0.60;;;6.90;99.90;;;;;;5053528;28;20626;-46
2023/04/13 03:58:03;;;;;;;1.10;0.30;;;6.90;99.90;;;;;;5055168;28;20227;-46
2023/04/13 04:00:29;;;;;;;0.90;0.50;;;6.90;99.90;;;;;;5055124;28;20268;-45
2023/04/13 04:02:55;;;;;;;1.43;0.40;;;6.90;99.90;;;;;;5054576;28;20270;-46
2023/04/13 04:05:21;;;;;;;0.77;0.30;;;6.80;99.90;;;;;;5054758;28;20180;-45
2023/04/13 04:07:46;;;;;;;2.23;0.40;;;6.80;99.90;;;;;;5054555;28;20180;-45
2023/04/13 04:10:12;;;;;;;1.20;0.43;;;6.80;99.90;;;;;;5054308;28;20179;-47
2023/04/13 04:12:37;;;;;;;0.47;0.30;;;6.80;99.90;;;;;;5054222;28;20248;-44
2023/04/13 04:15:04;;;;;;;2.63;0.50;;;6.80;99.90;;;;;;5054920;28;20265;-46
2023/04/13 04:17:29;;;;;;;5.03;0.60;;;6.80;99.90;;;;;;5054460;28;20644;-45
2023/04/13 04:19:55;;;;;;;1.03;0.50;;;6.80;99.90;;;;;;5053952;28;20300;-47
2023/04/13 04:22:21;;;;;;;1.50;0.50;;;6.80;99.90;;;;;;5054586;28;20672;-45
2023/04/13 04:24:46;;;;;;;3.27;0.60;;;6.80;99.90;;;;;;5054185;28;20188;-46
2023/04/13 04:27:13;;;;;;;1.70;0.50;;;6.80;99.90;;;;;;5054444;28;20184;-45
2023/04/13 04:29:38;;;;;;;0.87;0.60;;;6.80;99.90;;;;;;5054301;28;20188;-46
2023/04/13 04:32:09;;;;;;;0.67;0.40;;;6.80;99.90;;;;;;5053879;28;20547;-47
2023/04/13 04:34:34;;;;;;;2.60;0.80;;;6.80;99.90;;;;;;5054471;28;20190;-44
2023/04/13 04:37:04;;;;;;;0.57;0.50;;;6.80;99.90;;;;;;5054106;28;20192;-48
2023/04/13 04:39:33;;;;;;;1.00;0.60;;;6.80;99.90;;;;;;5053717;28;20689;-46
2023/04/13 04:42:02;;;;;;;0.70;0.53;;;6.80;99.90;;;;;;5053998;28;20203;-47
2023/04/13 04:44:29;;;;;;;2.37;0.67;;;6.80;99.90;;;;;;5054100;28;20236;-45
2023/04/13 04:46:57;;;;;;;1.53;0.70;;;6.80;99.90;;;;;;5054037;28;20188;-45
2023/04/13 04:49:24;;;;;;;2.70;0.50;;;6.90;99.90;;;;;;5053707;28;20208;-44
2023/04/13 04:51:51;;;;;;;2.97;0.70;;;6.80;99.90;;;;;;5053367;28;20218;-45
2023/04/13 04:54:18;;;;;;;0.83;0.80;;;6.80;99.90;;;;;;5053750;28;20226;-46
2023/04/13 04:56:46;;;;;;;11.27;4.70;;;6.80;99.90;;;;;;5054113;28;20183;-46
2023/04/13 04:59:12;;;;;;;5.67;1.80;;;6.80;99.90;;;;;;5053591;28;20211;-46
2023/04/13 05:01:38;;;;;;;7.77;3.77;;;6.80;99.90;;;;;;5053774;28;20192;-47
2023/04/13 05:04:05;;;;;;;6.27;4.00;;;6.70;99.90;;;;;;5053707;28;20558;-45
2023/04/13 05:06:31;;;;;;;4.13;1.90;;;6.70;99.90;;;;;;5053421;28;20318;-45
2023/04/13 05:08:58;;;;;;;4.87;2.37;;;6.70;99.90;;;;;;5054167;28;20184;-45
2023/04/13 05:11:25;;;;;;;5.47;3.20;;;6.70;99.90;;;;;;5053529;28;20215;-45
2023/04/13 05:13:51;;;;;;;1.93;1.10;;;6.80;99.90;;;;;;5053616;28;20230;-47
2023/04/13 05:16:17;;;;;;;2.07;0.80;;;6.80;99.90;;;;;;5053252;28;20180;-45
2023/04/13 05:18:46;;;;;;;2.47;1.50;;;6.80;99.90;;;;;;5053349;28;20713;-48
2023/04/13 05:21:13;;;;;;;4.97;1.67;;;6.80;99.90;;;;;;5051684;23;20342;-47
2023/04/13 05:23:39;;;;;;;2.50;0.80;;;6.70;99.90;;;;;;5033531;28;20267;-46
2023/04/13 05:26:07;;;;;;;5.40;1.43;;;6.70;99.90;;;;;;5033351;28;20668;-46
2023/04/13 05:28:34;;;;;;;3.23;1.00;;;6.60;99.90;;;;;;5033158;28;20279;-47
2023/04/13 05:31:05;;;;;;;2.77;1.40;;;6.60;99.90;;;;;;5033140;28;20185;-47
2023/04/13 05:33:31;;;;;;;3.93;2.77;;;6.60;99.90;;;;;;5033308;28;20169;-46
2023/04/13 05:35:57;;;;;;;3.53;1.17;;;6.60;99.90;;;;;;5033389;28;20568;-47
2023/04/13 05:38:23;;;;;;;3.80;2.07;;;6.60;99.90;;;;;;5033072;28;20306;-47
2023/04/13 05:40:48;;;;;;;2.07;0.70;;;6.70;99.90;;;;;;5033134;28;20177;-47
2023/04/13 05:43:14;;;;;;;2.13;0.80;;;6.70;99.90;;;;;;5033256;28;20535;-47
2023/04/13 05:45:40;;;;;;;3.37;1.63;;;6.70;99.90;;;;;;5033068;28;20224;-46
2023/04/13 05:48:06;;;;;;;4.83;1.80;;;6.70;99.90;;;;;;5033026;28;20241;-48
2023/04/13 05:50:31;;;;;;;1.70;0.70;;;6.70;99.90;;;;;;5033263;28;20213;-46
2023/04/13 05:52:57;;;;;;;8.07;4.60;;;6.70;99.90;;;;;;5032915;28;20201;-46
2023/04/13 05:55:23;;;;;;;5.73;3.87;;;6.70;99.90;;;;;;5033000;28;20228;-47
2023/04/13 05:57:50;;;;;;;6.83;4.37;;;6.70;99.90;;;;;;5032867;28;20181;-48
2023/04/13 06:00:17;;;;;;;2.07;1.00;;;6.70;99.90;;;;;;5032915;28;20181;-48
2023/04/13 06:02:46;;;;;;;4.50;2.43;;;6.80;99.90;;;;;;5033116;28;20192;-48
2023/04/13 06:05:15;;;;;;;1.97;0.83;;;6.80;99.90;;;;;;5036112;28;20655;-48
2023/04/13 06:07:43;;;;;;;1.80;1.10;;;6.80;99.90;;;;;;5036573;28;20185;-47
2023/04/13 06:10:09;;;;;;;3.73;1.90;;;6.80;99.90;;;;;;5036771;28;20541;-47
2023/04/13 06:12:35;;;;;;;2.13;1.00;;;6.90;99.90;;;;;;5036965;28;20216;-49
2023/04/13 06:15:01;;;;;;;0.63;0.63;;;7.00;99.90;;;;;;5036715;28;20185;-48
2023/04/13 06:17:26;;;;;;;3.33;0.70;;;7.00;99.90;;;;;;5036413;28;20636;-48
2023/04/13 06:19:53;;;;;;;5.20;1.00;;;7.20;99.90;;;;;;5036323;28;20228;-48
2023/04/13 06:22:18;;;;;;;4.83;1.10;;;7.20;99.90;;;;;;5018471;28;20204;-48
2023/04/13 06:24:44;;;;;;;1.40;0.73;;;7.40;99.90;;;;;;5036541;28;20279;-47
2023/04/13 06:27:10;;;;;;;1.57;0.77;;;7.40;99.90;;;;;;5036224;28;20187;-49
2023/04/13 06:29:36;;;;;;;2.97;1.00;;;7.50;99.90;;;;;;5036177;28;20640;-47
2023/04/13 06:32:03;;;;;;;2.13;0.83;;;7.60;99.90;;;;;;5036033;28;20578;-47
2023/04/13 06:34:29;;;;;;;2.33;0.93;;;7.70;99.90;;;;;;5036311;28;20196;-49
2023/04/13 06:36:54;;;;;;;3.63;1.00;;;7.80;99.90;;;;;;5036031;28;20185;-48
2023/04/13 06:39:20;;;;;;;2.60;0.70;;;7.90;99.90;;;;;;5036174;28;20239;-49
2023/04/13 06:41:47;;;;;;;3.70;0.90;;;7.90;99.90;;;;;;5036141;28;20205;-48
2023/04/13 06:44:12;;;;;;;3.80;0.77;;;8.10;99.90;;;;;;5035949;28;20172;-48
2023/04/13 06:46:38;;;;;;;1.50;0.70;;;8.10;99.90;;;;;;5035843;28;20220;-49
2023/04/13 06:49:04;;;;;;;2.07;0.67;;;8.20;99.90;;;;;;5036153;28;20236;-48
2023/04/13 06:51:30;;;;;;;4.17;0.90;;;8.30;99.90;;;;;;5036051;28;20279;-48
2023/04/13 06:53:55;;;;;;;2.33;0.90;;;8.40;99.90;;;;;;5036036;28;20266;-47
2023/04/13 06:56:21;;;;;;;5.07;1.13;;;8.30;99.90;;;;;;5035767;28;20632;-47
2023/04/13 06:58:47;;;;;;;2.20;0.70;;;8.30;99.90;;;;;;5035615;28;20616;-48
2023/04/13 07:01:12;;;;;;;1.63;0.83;;;8.40;99.90;;;;;;5035545;28;20177;-47
2023/04/13 07:03:38;;;;;;;5.13;1.10;;;8.30;99.90;;;;;;5035562;28;20220;-46
2023/04/13 07:06:05;;;;;;;3.47;0.83;;;8.30;99.90;;;;;;5035787;28;20686;-46
2023/04/13 07:08:31;;;;;;;2.97;1.30;;;8.30;99.90;;;;;;5035666;28;20639;-46
2023/04/13 07:10:57;;;;;;;3.50;1.03;;;8.40;99.90;;;;;;5035620;28;20187;-46
2023/04/13 07:13:24;;;;;;;4.27;1.20;;;8.40;99.90;;;;;;5035628;28;20219;-47
2023/04/13 07:15:50;;;;;;;3.30;1.13;;;8.40;99.90;;;;;;5034750;28;20548;-46
2023/04/13 07:18:16;;;;;;;3.63;1.13;;;8.40;99.90;;;;;;5035222;28;20230;-48
2023/04/13 07:20:42;;;;;;;3.37;1.10;;;8.50;99.90;;;;;;5035044;28;20198;-47
2023/04/13 07:23:08;;;;;;;4.67;1.10;;;8.60;99.90;;;;;;5035148;28;20229;-46
2023/04/13 07:25:34;;;;;;;6.83;1.40;;;8.60;99.90;;;;;;5035121;28;20181;-47
2023/04/13 07:28:00;;;;;;;4.23;1.50;;;8.70;99.90;;;;;;5035349;28;20244;-46
2023/04/13 07:30:26;;;;;;;4.03;1.20;;;8.80;99.90;;;;;;5035271;28;20187;-47
2023/04/13 07:32:52;;;;;;;4.87;1.20;;;8.80;99.90;;;;;;5035675;28;20209;-48
2023/04/13 07:35:17;;;;;;;5.57;1.37;;;8.80;99.90;;;;;;5035201;28;20184;-48
2023/04/13 07:37:45;;;;;;;4.67;1.63;;;8.80;99.90;;;;;;5035102;28;20239;-47
2023/04/13 07:40:12;;;;;;;4.57;1.10;;;8.90;99.90;;;;;;5035068;28;20191;-47
2023/04/13 07:42:38;;;;;;;8.57;1.83;;;9.00;99.90;;;;;;5034738;28;20731;-47
2023/04/13 07:45:05;;;;;;;2.40;1.10;;;9.00;99.90;;;;;;5034763;28;20188;-46
2023/04/13 07:47:31;;;;;;;5.87;1.57;;;9.00;99.90;;;;;;5034696;28;20190;-47
2023/04/13 07:49:56;;;;;;;5.60;1.20;;;9.10;99.90;;;;;;5034894;28;20185;-46
2023/04/13 07:52:22;;;;;;;6.63;1.80;;;9.00;99.90;;;;;;5034822;28;20204;-47
2023/04/13 07:54:48;;;;;;;3.37;1.30;;;9.10;99.90;;;;;;5034829;28;20186;-48
2023/04/13 07:57:13;;;;;;;8.27;1.93;;;9.10;99.90;;;;;;5034482;28;20181;-46
2023/04/13 07:59:39;;;;;;;10.40;1.87;;;9.10;99.90;;;;;;5034638;28;20220;-48
2023/04/13 08:02:05;;;;;;;9.73;2.00;;;9.10;99.90;;;;;;5034631;28;20205;-46
2023/04/13 08:04:32;;;;;;;3.73;1.30;;;9.00;99.90;;;;;;5035449;28;20199;-47
2023/04/13 08:07:06;;;;;;;4.33;1.60;;;9.00;99.90;;;;;;5034397;28;20173;-47
2023/04/13 08:09:37;;;;;;;4.50;1.67;;;9.00;99.90;;;;;;5034861;28;20226;-48
2023/04/13 08:12:03;;;;;;;5.57;1.43;;;9.00;99.90;;;;;;5035526;28;20698;-49
2023/04/13 08:14:28;;;;;;;7.27;1.70;;;9.00;99.90;;;;;;5034460;28;20233;-49
2023/04/13 08:16:54;;;;;;;8.03;1.77;;;9.00;99.90;;;;;;5034174;28;20177;-48
2023/04/13 08:19:19;;;;;;;7.10;1.60;;;9.00;99.90;;;;;;5034086;28;20695;-47
2023/04/13 08:21:45;;;;;;;8.50;2.10;;;9.00;99.90;;;;;;5034037;28;20217;-48
2023/04/13 08:24:11;;;;;;;6.20;1.80;;;8.90;99.90;;;;;;5034220;28;20196;-48
2023/04/13 08:26:37;;;;;;;12.83;2.67;;;8.90;99.90;;;;;;5016158;28;20183;-46
2023/04/13 08:29:03;;;;;;;5.40;1.90;;;8.90;99.90;;;;;;5034229;28;20271;-47
2023/04/13 08:31:28;;;;;;;13.43;2.57;;;8.90;99.90;;;;;;5034060;28;20205;-47
2023/04/13 08:33:54;;;;;;;11.57;2.60;;;9.00;99.90;;;;;;5033957;28;20177;-48
2023/04/13 08:36:19;;;;;;;7.60;1.90;;;8.90;99.90;;;;;;5034021;28;20184;-49
2023/04/13 08:38:45;;;;;;;8.00;2.37;;;9.00;99.90;;;;;;5033704;28;20771;-46
2023/04/13 08:41:11;;;;;;;8.27;2.13;;;9.00;99.90;;;;;;5033891;28;20187;-48
2023/04/13 08:43:37;;;;;;;10.87;2.53;;;8.90;99.90;;;;;;5033707;28;20184;-48
2023/04/13 08:46:06;;;;;;;9.53;2.13;;;9.00;99.90;;;;;;5033666;28;20173;-47
2023/04/13 08:48:41;;;;;;;13.47;2.70;;;9.00;99.90;;;;;;5033891;28;20192;-48
2023/04/13 08:51:09;;;;;;;8.33;2.70;;;9.00;99.90;;;;;;5033454;28;20188;-50
2023/04/13 08:53:34;;;;;;;11.30;2.80;;;9.00;99.90;;;;;;5033825;28;20554;-48
2023/04/13 08:56:02;;;;;;;13.03;3.30;;;9.10;99.90;;;;;;5033786;28;20203;-48
2023/04/13 08:58:29;;;;;;;15.70;2.93;;;9.10;99.90;;;;;;5015764;28;20291;-46
2023/04/13 09:00:56;;;;;;;5.33;2.13;;;9.20;99.90;;;;;;5033376;28;20173;-48
2023/04/13 09:03:28;;;;;;;9.10;2.20;;;9.30;99.90;;;;;;5033781;28;20188;-46
2023/04/13 09:06:00;;;;;;;5.80;1.83;;;9.40;99.90;;;;;;5033757;28;20192;-47
2023/04/13 09:08:33;;;;;;;16.83;2.93;;;9.40;99.90;;;;;;5033474;28;20191;-49
2023/04/13 09:10:59;;;;;;;8.73;2.30;;;9.60;99.90;;;;;;5033576;28;20541;-50
2023/04/13 09:13:25;;;;;;;6.50;1.60;;;9.60;99.90;;;;;;5033645;28;20186;-49
2023/04/13 09:15:51;;;;;;;7.70;2.40;;;9.60;99.90;;;;;;5033421;28;20263;-48
2023/04/13 09:18:17;;;;;;;33.33;11.00;;;9.70;99.90;;;;;;5033178;28;20299;-48
2023/04/13 09:20:56;;;;;;;10.83;2.27;;;9.80;99.90;;;;;;5033233;28;20256;-47
2023/04/13 09:23:22;;;;;;;11.33;2.67;;;10.00;99.90;;;;;;5033486;28;20167;-49
2023/04/13 09:25:49;;;;;;;15.23;2.50;;;10.20;99.90;;;;;;5033857;28;20265;-47
2023/04/13 09:28:16;;;;;;;11.03;2.37;;;10.40;99.90;;;;;;5033459;28;20198;-48
2023/04/13 09:30:42;;;;;;;10.30;2.73;;;10.70;99.90;;;;;;5033625;28;20265;-47
2023/04/13 09:33:09;;;;;;;10.03;2.70;;;10.90;99.90;;;;;;5033479;28;20621;-47
2023/04/13 09:35:36;;;;;;;9.37;2.43;;;11.00;99.90;;;;;;5033495;28;20591;-48
2023/04/13 09:38:03;;;;;;;14.30;2.50;;;11.20;99.90;;;;;;5033240;28;20188;-47
2023/04/13 09:40:30;;;;;;;10.07;2.43;;;11.50;99.90;;;;;;5019385;28;20180;-48
2023/04/13 09:42:55;;;;;;;12.23;2.00;;;11.60;99.90;;;;;;5036889;28;20210;-48
2023/04/13 09:45:22;;;;;;;10.67;1.97;;;11.70;99.90;;;;;;5037266;28;20264;-48
2023/04/13 09:47:47;;;;;;;8.57;1.63;;;11.80;99.90;;;;;;5037248;28;20254;-48
2023/04/13 09:50:26;;;;;;;6.67;1.90;;;11.90;99.90;;;;;;5037120;28;20700;-46
2023/04/13 09:53:03;;;;;;;7.87;1.77;;;12.00;99.90;;;;;;5037103;28;20216;-49
2023/04/13 09:55:33;;;;;;;6.67;1.70;;;11.90;99.90;;;;;;5036808;28;20181;-47
2023/04/13 09:58:16;;;;;;;7.87;2.00;;;11.90;99.90;;;;;;5036745;28;20187;-49
2023/04/13 10:00:44;;;;;;;6.47;1.83;;;11.90;99.90;;;;;;5037065;28;20173;-48
2023/04/13 10:03:14;;;;;;;7.80;2.20;;;11.90;99.90;;;;;;5036898;28;20197;-47
2023/04/13 10:05:41;;;;;;;8.93;2.37;;;11.90;99.90;;;;;;5037007;28;20201;-49
2023/04/13 10:08:08;;;;;;;11.30;2.27;;;11.80;99.90;;;;;;5037042;28;20222;-50
2023/04/13 10:10:38;;;;;;;9.23;2.27;;;11.70;99.90;;;;;;5036537;28;20203;-47
2023/04/13 10:13:26;;;;;;;10.43;2.20;;;11.70;99.90;;;;;;5036786;28;20668;-48
2023/04/13 10:16:18;;;;;;;8.83;2.50;;;11.60;99.90;;;;;;5036743;28;20181;-47
2023/04/13 10:18:59;;;;;;;12.00;2.30;;;11.60;99.90;;;;;;5036586;28;20291;-48
2023/04/13 10:21:34;;;;;;;10.17;2.40;;;11.60;99.90;;;;;;5036212;28;20228;-51
2023/04/13 10:24:01;;;;;;;13.80;2.70;;;11.60;99.90;;;;;;5018647;28;20182;-52
2023/04/13 10:26:31;;;;;;;8.53;2.33;;;11.50;99.90;;;;;;5036673;28;20535;-52
2023/04/13 10:28:59;;;;;;;13.53;3.40;;;11.50;99.90;;;;;;5036621;28;20679;-51
2023/04/13 10:31:39;;;;;;;6.83;2.47;;;11.50;99.90;;;;;;5036444;28;20247;-53
2023/04/13 10:34:09;;;;;;;10.63;2.80;;;11.50;99.90;;;;;;5018529;28;20564;-52
2023/04/13 10:36:45;;;;;;;10.23;3.40;;;11.40;99.90;;;;;;5036231;28;20644;-52
2023/04/13 10:39:23;;;;;;;12.40;2.53;;;11.40;99.90;;;;;;5036399;28;20254;-52
2023/04/13 10:42:02;;;;;;;8.23;2.67;;;11.50;99.90;;;;;;5036028;28;20262;-53
2023/04/13 10:44:43;;;;;;;9.53;2.60;;;11.60;99.90;;;;;;5036223;28;20171;-51
2023/04/13 10:47:10;;;;;;;11.97;2.63;;;11.70;99.90;;;;;;5036219;28;20166;-52
2023/04/13 10:49:35;;;;;;;8.17;2.43;;;11.90;99.90;;;;;;5035078;28;20185;-52
2023/04/13 10:52:01;;;;;;;8.53;2.97;;;12.00;99.90;;;;;;5035114;28;20208;-52
2023/04/13 10:54:30;;;;;;;8.47;1.93;;;12.00;99.90;;;;;;5035794;28;20183;-53
2023/04/13 10:56:57;;;;;;;9.73;3.30;;;12.00;99.90;;;;;;5035758;28;20311;-54
2023/04/13 10:59:33;;;;;;;10.73;2.87;;;12.00;99.90;;;;;;5035641;28;20200;-54
2023/04/13 11:01:59;;;;;;;11.43;2.43;;;12.00;99.90;;;;;;5018149;28;20227;-53
2023/04/13 11:04:25;;;;;;;9.17;2.50;;;12.00;99.90;;;;;;5035870;28;20192;-52
2023/04/13 11:06:51;;;;;;;11.27;2.97;;;11.90;99.90;;;;;;5036621;28;20592;-52
2023/04/13 11:09:21;;;;;;;8.33;2.20;;;11.90;99.90;;;;;;5035766;28;20199;-52
2023/04/13 11:11:50;;;;;;;9.47;2.87;;;11.90;99.90;;;;;;5035350;28;20201;-51
2023/04/13 11:14:21;;;;;;;9.83;3.20;;;12.00;99.90;;;;;;5035450;28;20264;-52
2023/04/13 11:16:48;;;;;;;12.77;4.70;;;12.10;99.90;;;;;;5035674;28;20215;-53
2023/04/13 11:19:14;;;;;;;10.20;3.60;;;12.10;99.90;;;;;;5035109;28;20239;-52
2023/04/13 11:21:39;;;;;;;9.77;2.20;;;12.10;99.90;;;;;;5035422;28;20211;-48
2023/04/13 11:24:05;;;;;;;12.53;3.17;;;12.10;99.90;;;;;;5035222;28;20181;-48
2023/04/13 11:26:33;;;;;;;12.17;2.70;;;12.10;99.90;;;;;;5017319;28;20247;-49
2023/04/13 11:28:58;;;;;;;13.43;3.40;;;12.10;99.90;;;;;;5035219;28;20585;-48
2023/04/13 11:31:37;;;;;;;11.20;3.53;;;12.30;99.90;;;;;;5035366;28;20627;-48
2023/04/13 11:34:05;;;;;;;15.33;3.20;;;12.50;99.90;;;;;;5035292;28;20183;-49
2023/04/13 11:36:32;;;;;;;15.07;2.37;;;12.60;99.90;;;;;;5035190;28;20197;-47
2023/04/13 11:39:00;;;;;;;7.87;2.03;;;12.70;99.90;;;;;;5034982;28;20208;-49
2023/04/13 11:41:31;;;;;;;9.30;2.47;;;12.70;99.90;;;;;;5035148;28;20763;-49
2023/04/13 11:44:00;;;;;;;9.17;2.90;;;12.80;99.90;;;;;;5035124;28;20279;-49
2023/04/13 11:46:27;;;;;;;8.90;2.20;;;12.90;99.90;;;;;;5035557;28;20511;-49
2023/04/13 11:48:54;;;;;;;9.00;2.67;;;12.90;99.90;;;;;;5034977;28;20181;-48
2023/04/13 11:51:21;;;;;;;11.87;3.20;;;12.80;99.90;;;;;;5034678;28;20231;-49
2023/04/13 11:53:46;;;;;;;12.57;3.50;;;12.90;99.90;;;;;;5034872;28;20235;-47
2023/04/13 11:56:13;;;;;;;11.43;3.40;;;13.10;99.90;;;;;;5034917;28;20223;-49
2023/04/13 11:58:39;;;;;;;5.23;1.70;;;13.30;99.90;;;;;;5034418;28;20223;-48
2023/04/13 12:01:08;;;;;;;6.83;2.03;;;13.40;99.90;;;;;;5034048;28;20176;-49
2023/04/13 12:03:34;;;;;;;6.80;1.97;;;13.30;99.90;;;;;;5034796;28;20207;-49
2023/04/13 12:06:01;;;;;;;8.17;1.77;;;13.40;99.90;;;;;;5034805;28;20649;-48
2023/04/13 12:08:28;;;;;;;10.47;1.73;;;13.50;99.90;;;;;;5034599;28;20551;-48
2023/04/13 12:11:04;;;;;;;7.07;2.00;;;13.60;99.90;;;;;;5034483;28;20276;-48
2023/04/13 12:13:44;;;;;;;5.23;1.53;;;13.80;99.90;;;;;;5035021;28;20250;-49
2023/04/13 12:16:11;;;;;;;5.80;1.90;;;14.00;99.90;;;;;;5034701;28;20611;-49
2023/04/13 12:18:44;;;;;;;8.97;1.50;;;14.10;99.90;;;;;;5034470;28;20213;-48
2023/04/13 12:21:15;;;;;;;11.33;1.40;;;14.20;99.90;;;;;;5034210;28;20189;-48
2023/04/13 12:23:51;;;;;;;7.00;1.40;;;14.30;99.90;;;;;;5034458;28;20189;-47
2023/04/13 12:26:18;;;;;;;8.80;2.20;;;14.50;99.90;;;;;;5034429;28;20191;-50
2023/04/13 12:28:45;;;;;;;5.73;1.57;;;14.50;99.90;;;;;;5034342;28;20188;-50
2023/04/13 12:31:14;;;;;;;5.93;1.70;;;14.60;99.90;;;;;;5034128;28;20188;-48
2023/04/13 12:33:39;;;;;;;7.60;1.37;;;14.60;99.90;;;;;;5034201;28;20268;-49
2023/04/13 12:36:10;;;;;;;9.50;2.10;;;14.70;99.90;;;;;;5034176;28;20660;-47
2023/04/13 12:38:36;;;;;;;7.13;1.80;;;14.70;99.90;;;;;;5034024;28;20216;-49
2023/04/13 12:41:01;;;;;;;6.90;1.87;;;14.80;99.90;;;;;;5033694;28;20177;-50
2023/04/13 12:43:28;;;;;;;8.60;1.77;;;14.80;99.90;;;;;;5033941;28;20231;-48
2023/04/13 12:45:54;;;;;;;10.47;1.90;;;14.80;99.90;;;;;;5033749;28;20600;-48
2023/04/13 12:48:21;;;;;;;6.57;1.50;;;14.80;99.90;;;;;;5033744;28;20196;-46
2023/04/13 12:50:47;;;;;;;6.10;1.33;;;14.90;99.90;;;;;;5033866;28;20223;-47
2023/04/13 12:53:13;;;;;;;5.13;1.77;;;14.90;99.90;;;;;;5033537;28;20205;-48
2023/04/13 12:55:39;;;;;;;4.50;1.30;;;14.90;99.90;;;;;;5033840;28;20185;-48